createdAt,value
2023-05-01T00:05:16.948Z,11.53
2023-05-01T00:10:39.573Z,11.63
2023-05-01T00:16:01.354Z,11.67
2023-05-01T00:21:23.074Z,11.78
2023-05-01T00:26:45.064Z,11.69
2023-05-01T00:32:07.113Z,11.45
2023-05-01T00:37:28.844Z,11.32
2023-05-01T00:42:50.518Z,11.35
2023-05-01T00:48:12.410Z,11.43
2023-05-01T00:53:34.377Z,11.45
2023-05-01T00:58:56.491Z,11.36
2023-05-01T01:04:18.238Z,11.48
2023-05-01T01:10:18.130Z,11.41
2023-05-01T01:16:06.110Z,11.40
2023-05-01T01:21:33.600Z,11.40
2023-05-01T01:27:19.155Z,11.41
2023-05-01T01:33:24.916Z,11.39
2023-05-01T01:38:59.589Z,11.38
2023-05-01T01:44:37.244Z,11.38
2023-05-01T01:50:04.206Z,11.25
2023-05-01T01:55:30.346Z,11.11
2023-05-01T02:00:54.673Z,11.17
2023-05-01T02:06:17.587Z,11.04
2023-05-01T02:11:40.996Z,11.15
2023-05-01T02:17:04.084Z,11.31
2023-05-01T02:22:27.187Z,11.33
2023-05-01T02:28:01.800Z,11.31
2023-05-01T02:33:23.512Z,11.32
2023-05-01T02:38:47.134Z,11.36
2023-05-01T02:44:11.298Z,11.30
2023-05-01T02:49:34.162Z,11.34
2023-05-01T02:54:56.876Z,11.33
2023-05-01T03:00:19.628Z,11.35
2023-05-01T03:05:41.786Z,11.34
2023-05-01T03:11:07.836Z,11.25
2023-05-01T03:16:29.612Z,11.27
2023-05-01T03:21:51.345Z,11.12
2023-05-01T03:27:13.334Z,11.17
2023-05-01T03:32:35.050Z,11.30
2023-05-01T03:37:56.754Z,11.32
2023-05-01T03:43:18.482Z,11.17
2023-05-01T03:48:40.204Z,11.22
2023-05-01T03:54:02.597Z,11.23
2023-05-01T03:59:25.046Z,11.28
2023-05-01T04:04:46.776Z,11.24
2023-05-01T04:10:09.778Z,11.20
2023-05-01T04:15:31.505Z,11.17
2023-05-01T04:20:53.336Z,11.09
2023-05-01T04:26:15.312Z,11.05
2023-05-01T04:31:37.444Z,11.10
2023-05-01T04:36:59.286Z,10.95
2023-05-01T04:42:21.143Z,11.09
2023-05-01T04:47:42.856Z,11.15
2023-05-01T04:53:04.659Z,11.14
2023-05-01T04:58:26.428Z,11.11
2023-05-01T05:03:50.022Z,11.13
2023-05-01T05:09:12.271Z,11.07
2023-05-01T05:14:34.002Z,10.93
2023-05-01T05:19:55.947Z,11.16
2023-05-01T05:25:18.546Z,11.24
2023-05-01T05:30:40.224Z,11.23
2023-05-01T05:36:01.934Z,11.26
2023-05-01T05:41:23.681Z,11.16
2023-05-01T05:46:45.810Z,11.21
2023-05-01T05:52:07.524Z,11.25
2023-05-01T05:57:29.241Z,11.17
2023-05-01T06:02:51.465Z,11.12
2023-05-01T06:08:14.496Z,11.05
2023-05-01T06:13:36.381Z,11.22
2023-05-01T06:18:58.229Z,11.26
2023-05-01T06:24:19.949Z,11.31
2023-05-01T06:29:41.760Z,11.30
2023-05-01T06:35:03.597Z,11.40
2023-05-01T06:40:25.353Z,11.46
2023-05-01T06:45:47.090Z,11.46
2023-05-01T06:51:08.885Z,11.47
2023-05-01T06:56:32.219Z,11.52
2023-05-01T07:01:53.967Z,11.60
2023-05-01T07:07:15.862Z,11.58
2023-05-01T07:12:37.826Z,11.58
2023-05-01T07:18:01.142Z,11.58
2023-05-01T07:23:23.698Z,11.69
2023-05-01T07:28:45.472Z,11.76
2023-05-01T07:34:07.251Z,11.62
2023-05-01T07:39:28.975Z,11.77
2023-05-01T07:44:51.543Z,11.95
2023-05-01T07:50:13.275Z,12.02
2023-05-01T07:55:34.994Z,12.06
2023-05-01T08:00:56.787Z,12.09
2023-05-01T08:06:18.623Z,12.23
2023-05-01T08:11:40.413Z,12.10
2023-05-01T08:17:02.117Z,12.19
2023-05-01T08:22:23.938Z,12.29
2023-05-01T08:27:45.689Z,12.37
2023-05-01T08:33:07.795Z,12.41
2023-05-01T08:38:29.648Z,12.56
2023-05-01T08:43:51.610Z,12.59
2023-05-01T08:49:16.873Z,12.70
2023-05-01T08:54:42.786Z,12.86
2023-05-01T09:00:07.982Z,12.96
2023-05-01T09:05:31.969Z,13.07
2023-05-01T09:10:55.549Z,13.14
2023-05-01T09:16:17.370Z,13.21
2023-05-01T09:21:40.040Z,13.32
2023-05-01T09:27:01.770Z,13.40
2023-05-01T09:32:28.219Z,13.52
2023-05-01T09:37:50.430Z,13.60
2023-05-01T09:43:12.215Z,13.65
2023-05-01T09:48:35.655Z,13.76
2023-05-01T09:54:00.220Z,13.89
2023-05-01T09:59:21.919Z,13.99
2023-05-01T10:04:43.635Z,13.98
2023-05-01T10:10:19.010Z,13.98
2023-05-01T10:15:40.871Z,13.99
2023-05-01T10:21:04.176Z,13.97
2023-05-01T10:26:26.894Z,14.03
2023-05-01T10:31:48.644Z,14.08
2023-05-01T10:37:18.128Z,14.17
2023-05-01T10:43:18.519Z,14.21
2023-05-01T10:48:40.600Z,14.33
2023-05-01T10:54:14.246Z,14.36
2023-05-01T11:00:03.927Z,14.46
2023-05-01T11:06:00.952Z,14.43
2023-05-01T11:11:23.008Z,14.47
2023-05-01T11:16:46.811Z,14.53
2023-05-01T11:22:13.110Z,14.52
2023-05-01T11:27:35.449Z,14.58
2023-05-01T11:32:57.217Z,14.59
2023-05-01T11:38:19.108Z,14.64
2023-05-01T11:43:56.273Z,14.73
2023-05-01T11:49:27.413Z,14.77
2023-05-01T11:54:49.182Z,14.78
2023-05-01T12:00:12.065Z,14.79
2023-05-01T12:05:38.144Z,14.82
2023-05-01T12:11:00.628Z,14.84
2023-05-01T12:16:22.513Z,14.81
2023-05-01T12:21:44.338Z,14.87
2023-05-01T12:27:09.214Z,14.90
2023-05-01T12:32:32.275Z,14.94
2023-05-01T12:37:53.997Z,14.98
2023-05-01T12:43:16.659Z,15.04
2023-05-01T12:48:39.186Z,15.11
2023-05-01T12:54:00.996Z,15.11
2023-05-01T12:59:25.136Z,15.15
2023-05-01T13:04:49.259Z,15.13
2023-05-01T13:10:11.450Z,15.14
2023-05-01T13:15:33.311Z,15.12
2023-05-01T13:20:55.038Z,15.10
2023-05-01T13:26:17.010Z,15.07
2023-05-01T13:31:43.729Z,15.00
2023-05-01T13:37:13.234Z,14.94
2023-05-01T13:42:36.418Z,14.90
2023-05-01T13:47:59.273Z,14.83
2023-05-01T13:53:22.651Z,14.81
2023-05-01T13:58:44.758Z,14.84
2023-05-01T14:04:09.974Z,14.88
2023-05-01T14:09:35.629Z,14.88
2023-05-01T14:14:58.235Z,14.86
2023-05-01T14:20:20.157Z,14.85
2023-05-01T14:25:44.617Z,14.98
2023-05-01T14:31:07.925Z,15.09
2023-05-01T14:36:33.979Z,15.14
2023-05-01T14:41:58.194Z,15.32
2023-05-01T14:47:21.771Z,15.32
2023-05-01T14:52:43.882Z,15.32
2023-05-01T14:58:05.633Z,15.27
2023-05-01T15:03:27.557Z,15.20
2023-05-01T15:08:49.398Z,15.11
2023-05-01T15:14:11.123Z,15.07
2023-05-01T15:19:32.868Z,15.04
2023-05-01T15:24:54.565Z,14.91
2023-05-01T15:30:16.423Z,14.74
2023-05-01T15:35:38.563Z,14.49
2023-05-01T15:41:00.423Z,14.58
2023-05-01T15:46:23.462Z,14.49
2023-05-01T15:51:45.396Z,14.39
2023-05-01T15:57:08.545Z,14.51
2023-05-01T16:02:33.449Z,14.42
2023-05-01T16:08:00.613Z,14.43
2023-05-01T16:13:22.423Z,14.40
2023-05-01T16:18:44.172Z,14.33
2023-05-01T16:24:06.799Z,14.33
2023-05-01T16:29:28.869Z,14.33
2023-05-01T16:34:50.567Z,14.15
2023-05-01T16:40:16.678Z,14.05
2023-05-01T16:45:38.902Z,14.09
2023-05-01T16:51:01.124Z,14.12
2023-05-01T16:56:23.239Z,14.06
2023-05-01T17:01:45.096Z,13.87
2023-05-01T17:07:08.736Z,13.90
2023-05-01T17:12:30.467Z,13.58
2023-05-01T17:17:52.238Z,13.32
2023-05-01T17:23:14.116Z,13.47
2023-05-01T17:28:35.831Z,13.22
2023-05-01T17:33:57.600Z,13.20
2023-05-01T17:39:21.608Z,13.24
2023-05-01T17:44:43.343Z,13.25
2023-05-01T17:50:05.517Z,13.28
2023-05-01T17:55:27.871Z,13.15
2023-05-01T18:00:49.775Z,13.15
2023-05-01T18:06:13.189Z,13.14
2023-05-01T18:11:35.346Z,13.23
2023-05-01T18:16:57.159Z,13.14
2023-05-01T18:22:18.914Z,13.14
2023-05-01T18:27:41.711Z,13.05
2023-05-01T18:33:03.552Z,13.00
2023-05-01T18:38:27.564Z,13.05
2023-05-01T18:43:54.280Z,13.05
2023-05-01T18:49:23.305Z,12.97
2023-05-01T18:54:45.972Z,12.95
2023-05-01T19:00:09.090Z,12.95
2023-05-01T19:05:31.415Z,12.95
2023-05-01T19:10:53.408Z,12.92
2023-05-01T19:16:15.373Z,13.00
2023-05-01T19:21:37.125Z,13.03
2023-05-01T19:26:58.865Z,13.04
2023-05-01T19:32:21.067Z,13.16
2023-05-01T19:37:42.955Z,13.14
2023-05-01T19:43:04.643Z,13.13
2023-05-01T19:48:26.426Z,13.08
2023-05-01T19:53:48.312Z,13.03
2023-05-01T19:59:10.064Z,13.00
2023-05-01T20:04:31.870Z,12.97
2023-05-01T20:09:53.700Z,12.96
2023-05-01T20:15:15.680Z,12.89
2023-05-01T20:20:37.451Z,12.90
2023-05-01T20:25:59.698Z,12.86
2023-05-01T20:31:21.618Z,12.76
2023-05-01T20:36:43.512Z,12.75
2023-05-01T20:42:06.020Z,12.63
2023-05-01T20:47:27.885Z,12.73
2023-05-01T20:52:49.975Z,12.69
2023-05-01T20:58:11.783Z,12.58
2023-05-01T21:03:33.666Z,12.60
2023-05-01T21:08:55.715Z,12.49
2023-05-01T21:14:17.438Z,12.39
2023-05-01T21:19:44.083Z,12.34
2023-05-01T21:25:07.145Z,12.24
2023-05-01T21:30:36.426Z,12.27
2023-05-01T21:35:58.140Z,12.28
2023-05-01T21:41:19.846Z,12.29
2023-05-01T21:46:42.196Z,12.15
2023-05-01T21:52:04.004Z,12.05
2023-05-01T21:57:25.703Z,11.92
2023-05-01T22:02:49.794Z,11.91
2023-05-01T22:08:11.659Z,11.84
2023-05-01T22:13:33.601Z,11.84
2023-05-01T22:18:55.499Z,11.80
2023-05-01T22:24:17.260Z,11.68
2023-05-01T22:29:38.974Z,11.71
2023-05-01T22:35:00.911Z,11.87
2023-05-01T22:40:22.893Z,11.80
2023-05-01T22:45:44.896Z,11.52
2023-05-01T22:51:06.736Z,11.47
2023-05-01T22:56:28.620Z,11.37
2023-05-01T23:01:50.847Z,11.39
2023-05-01T23:07:15.665Z,11.44
2023-05-01T23:12:43.791Z,11.40
2023-05-01T23:18:06.551Z,11.54
2023-05-01T23:23:34.400Z,11.55
2023-05-01T23:28:56.266Z,11.36
2023-05-01T23:34:17.983Z,11.45
2023-05-01T23:39:39.683Z,11.22
2023-05-01T23:45:01.520Z,11.28
2023-05-01T23:50:25.235Z,11.16
2023-05-01T23:55:47.255Z,10.93
